Orlando, Florida
Traffic Map
Current Weather Conditions
Orlando, Florida
Clear
Clear
27°
Feels Like: 28°
Wind Chill: 27° Ceiling: Unl
Heat Index: 28° Visibility: 10mi
Dew Point: 16° Wind: 7mph
Humidity: 50% Direction: 30° (NNE)
Pressure: 30in Gusts: 0mph
Raw Report DataKORL 221553Z 03006KT 10SM CLR 27/16 A3000 RMK AO2 SLP162 T02720161
Traffic Incident Summary
Active as of:
Severity:
Category:
InformationThere was an issue retrieving the traffic information for this location. Please try a different location or try again shortly.
Advertisements
Track Severe Weather on mobile